Time;durP1;ratioP1;P1;durP2;ratioP2;P2;SDS_P1;SDS_P2;PMS_P1;PMS_P2;Temp;Humidity;BMP_temperature;BMP_pressure;BME280_temperature;BME280_humidity;BME280_pressure;Samples;Min_cycle;Max_cycle;Signal;HPM_P1;HPM_P2
2022/04/19 00:01:20;;;;;;;9.93;8.23;;;;;;;4.42;82.97;99618.78;6100706;23;20479;-80
2022/04/19 00:03:45;;;;;;;10.27;8.15;;;;;;;4.40;83.52;99612.16;6150906;23;20018;-80
2022/04/19 00:06:11;;;;;;;9.55;7.72;;;;;;;4.43;83.59;99603.88;6151248;23;20009;-87
2022/04/19 00:08:36;;;;;;;12.38;8.80;;;;;;;4.40;85.08;99607.44;6150813;23;20436;-87
2022/04/19 00:11:03;;;;;;;11.38;9.23;;;;;;;4.42;85.68;99605.03;6124663;23;20348;-87
2022/04/19 00:13:30;;;;;;;12.27;8.45;;;;;;;4.38;86.25;99601.56;6150072;23;20037;-88
2022/04/19 00:15:56;;;;;;;10.63;8.50;;;;;;;4.26;88.12;99599.31;6124116;23;20019;-88
2022/04/19 00:18:22;;;;;;;10.38;8.65;;;;;;;4.30;86.31;99597.31;6122886;23;20487;-87
2022/04/19 00:20:49;;;;;;;14.95;9.27;;;;;;;4.34;86.38;99595.31;6148925;23;20037;-88
2022/04/19 00:23:15;;;;;;;14.00;9.30;;;;;;;4.36;85.92;99592.16;6123124;23;20041;-88
2022/04/19 00:25:50;;;;;;;11.90;8.73;;;;;;;4.37;86.30;99594.50;6123986;23;20690;-87
2022/04/19 00:28:16;;;;;;;11.23;8.65;;;;;;;4.37;86.96;99596.47;6148255;23;20023;-88
2022/04/19 00:30:42;;;;;;;10.93;9.30;;;;;;;4.34;88.02;99589.81;6124065;23;20052;-87
2022/04/19 00:33:08;;;;;;;10.73;8.50;;;;;;;4.30;87.64;99583.56;6150767;23;20043;-88
2022/04/19 00:35:36;;;;;;;11.60;8.82;;;;;;;4.27;87.84;99578.91;6149683;23;20016;-87
2022/04/19 00:38:02;;;;;;;9.82;8.60;;;;;;;4.31;87.56;99578.88;6149347;23;20010;-87
2022/04/19 00:40:27;;;;;;;12.02;8.88;;;;;;;4.28;88.71;99574.97;6149336;23;19997;-88
2022/04/19 00:42:56;;;;;;;11.60;9.32;;;;;;;4.18;89.92;99567.59;6149314;23;20059;-87
2022/04/19 00:45:23;;;;;;;11.68;9.35;;;;;;;4.08;90.05;99560.25;6126509;23;20013;-87
2022/04/19 00:47:50;;;;;;;10.75;8.93;;;;;;;4.18;88.77;99564.84;6152241;23;20049;-89
2022/04/19 00:50:16;;;;;;;11.85;9.23;;;;;;;4.19;89.33;99560.94;6126053;23;20037;-89
2022/04/19 00:52:46;;;;;;;12.48;9.18;;;;;;;4.11;90.88;99568.44;6126714;23;20369;-88
2022/04/19 00:55:13;;;;;;;15.45;10.05;;;;;;;4.15;89.63;99555.47;6102723;23;20349;-88
2022/04/19 00:57:43;;;;;;;13.38;9.65;;;;;;;4.22;90.71;99566.41;6127301;23;20021;-87
2022/04/19 01:00:12;;;;;;;11.55;8.60;;;;;;;4.22;90.18;99562.88;6125684;23;20014;-88
2022/04/19 01:03:07;;;;;;;12.07;8.52;;;;;;;4.13;89.89;99555.09;6136022;23;20030;-87
2022/04/19 01:05:35;;;;;;;11.55;8.38;;;;;;;4.09;89.55;99548.06;6123725;23;20013;-87
2022/04/19 01:08:01;;;;;;;11.20;8.60;;;;;;;4.05;90.17;99545.34;6097810;23;20016;-87
2022/04/19 01:10:31;;;;;;;9.98;7.97;;;;;;;4.01;90.59;99549.31;6141614;23;20018;-88
2022/04/19 01:15:45;;;;;;;12.88;8.15;;;;;;;4.02;89.37;99546.19;6126687;23;20017;-88
2022/04/19 01:18:12;;;;;;;10.57;7.95;;;;;;;4.12;89.02;99528.84;6124690;23;20020;-89
2022/04/19 01:20:42;;;;;;;11.07;7.78;;;;;;;4.14;88.42;99531.16;6123370;23;20010;-81
2022/04/19 01:23:18;;;;;;;9.43;8.38;;;;;;;4.22;87.01;99532.66;6101693;23;20443;-81
2022/04/19 01:25:44;;;;;;;9.85;7.82;;;;;;;4.28;86.43;99542.03;6123064;23;20021;-81
2022/04/19 01:28:09;;;;;;;10.68;8.18;;;;;;;4.30;86.73;99533.38;6151556;23;20015;-81
2022/04/19 01:30:36;;;;;;;9.40;8.10;;;;;;;4.32;88.09;99537.28;6152360;23;20014;-81
2022/04/19 01:33:02;;;;;;;11.23;8.30;;;;;;;4.36;87.99;99535.28;6124598;23;20506;-81
2022/04/19 01:35:28;;;;;;;10.02;8.45;;;;;;;4.41;87.71;99534.06;6124368;23;20017;-81
2022/04/19 01:37:56;;;;;;;10.90;8.60;;;;;;;4.42;89.08;99536.41;6126324;23;20021;-81
2022/04/19 01:40:32;;;;;;;10.65;8.43;;;;;;;4.40;88.46;99538.78;6124879;23;20005;-89
2022/04/19 01:43:00;;;;;;;9.50;7.78;;;;;;;4.39;89.43;99526.22;6124856;23;20032;-89
2022/04/19 01:45:34;;;;;;;10.30;7.95;;;;;;;4.43;88.52;99526.97;6121677;23;20018;-88
2022/04/19 01:48:03;;;;;;;36.95;19.48;;;;;;;4.54;89.04;99527.63;6098399;23;20033;-88
2022/04/19 01:50:30;;;;;;;28.80;16.08;;;;;;;4.60;89.42;99523.28;6127160;23;20009;-88
2022/04/19 01:53:00;;;;;;;31.63;17.25;;;;;;;4.68;89.01;99527.50;6122199;23;20100;-88
2022/04/19 01:55:28;;;;;;;28.70;16.52;;;;;;;4.79;89.07;99527.38;6098676;23;20021;-88
2022/04/19 01:57:59;;;;;;;23.73;14.00;;;;;;;4.79;89.17;99521.09;6122836;23;20338;-88
2022/04/19 02:00:32;;;;;;;14.85;9.70;;;;;;;4.86;88.30;99504.50;6103760;23;20024;-88
2022/04/19 02:02:58;;;;;;;9.93;7.40;;;;;;;4.83;89.25;99510.84;6123375;23;20093;-88
2022/04/19 02:05:24;;;;;;;9.48;7.25;;;;;;;4.80;88.60;99512.44;6126623;23;20096;-88
2022/04/19 02:07:51;;;;;;;18.73;12.52;;;;;;;4.80;88.71;99495.19;6101141;23;20367;-87
2022/04/19 02:10:18;;;;;;;13.63;9.98;;;;;;;4.98;88.55;99509.47;6124044;23;20445;-88
2022/04/19 02:12:46;;;;;;;10.93;8.00;;;;;;;5.02;88.34;99510.19;6102274;23;20435;-88
2022/04/19 02:15:39;;;;;;;12.35;8.52;;;;;;;5.00;88.27;99504.34;6147488;23;20017;-88
2022/04/19 02:18:16;;;;;;;13.32;8.98;;;;;;;5.07;88.41;99510.53;6125974;23;20603;-88
2022/04/19 02:20:43;;;;;;;22.98;15.77;;;;;;;5.11;88.95;99511.25;6151146;23;20089;-88
2022/04/19 02:23:09;;;;;;;14.48;9.40;;;;;;;5.06;88.11;99516.44;6127296;23;20087;-88
2022/04/19 02:25:34;;;;;;;9.77;7.43;;;;;;;4.93;88.06;99509.94;6151868;23;20093;-88
2022/04/19 02:28:07;;;;;;;10.85;8.02;;;;;;;4.89;88.03;99509.22;6126801;23;20036;-88
2022/04/19 02:30:35;;;;;;;9.23;7.63;;;;;;;4.85;89.09;99513.97;6126558;23;20024;-88
2022/04/19 02:33:07;;;;;;;9.75;7.93;;;;;;;4.84;89.56;99517.91;6103951;23;20043;-88
2022/04/19 02:35:38;;;;;;;10.40;7.53;;;;;;;4.87;89.28;99514.31;6120441;23;20022;-87
2022/04/19 02:38:05;;;;;;;7.25;6.25;;;;;;;4.91;88.62;99513.09;6126542;23;20018;-87
2022/04/19 02:40:37;;;;;;;7.90;6.65;;;;;;;4.91;87.96;99501.31;6125868;23;20014;-88
2022/04/19 02:43:04;;;;;;;10.23;6.68;;;;;;;5.12;87.08;99517.53;6102783;23;20009;-87
2022/04/19 02:45:30;;;;;;;8.73;6.43;;;;;;;5.25;86.06;99523.28;6125766;23;20022;-87
2022/04/19 02:48:04;;;;;;;8.38;6.28;;;;;;;5.29;85.50;99505.53;6152501;23;20496;-88
2022/04/19 02:50:34;;;;;;;6.40;5.65;;;;;;;5.43;85.40;99505.31;6101612;23;20006;-88
2022/04/19 02:53:03;;;;;;;6.70;5.88;;;;;;;5.47;85.35;99511.53;6100881;23;20048;-88
2022/04/19 02:55:30;;;;;;;8.10;6.50;;;;;;;5.50;84.83;99498.94;6124235;23;20105;-88
2022/04/19 02:57:56;;;;;;;7.00;6.00;;;;;;;5.54;84.31;99505.19;6150173;23;20085;-87
2022/04/19 03:00:22;;;;;;;7.90;6.35;;;;;;;5.50;84.42;99494.19;6151389;23;20009;-88
2022/04/19 03:02:51;;;;;;;7.38;5.82;;;;;;;5.59;84.02;99501.94;6101387;23;20567;-88
2022/04/19 03:05:18;;;;;;;7.25;5.82;;;;;;;5.55;83.62;99499.25;6128022;23;20017;-88
2022/04/19 03:07:44;;;;;;;7.10;5.70;;;;;;;5.59;84.20;99499.19;6127205;23;20447;-89
2022/04/19 03:10:10;;;;;;;6.57;5.88;;;;;;;5.60;84.36;99496.03;6100025;23;20128;-88
2022/04/19 03:12:35;;;;;;;8.88;6.78;;;;;;;5.59;84.08;99486.22;6126605;23;20010;-89
2022/04/19 03:15:11;;;;;;;7.28;5.88;;;;;;;5.64;84.17;99471.22;6132419;23;20431;-88
2022/04/19 03:17:40;;;;;;;7.25;5.88;;;;;;;5.69;83.79;99491.97;6157301;23;20410;-88
2022/04/19 03:20:08;;;;;;;6.70;5.80;;;;;;;5.73;83.76;99495.44;6153876;23;20017;-88
2022/04/19 03:28:05;;;;;;;7.65;5.95;;;;;;;5.71;84.69;99493.09;6181390;23;20047;-88
2022/04/19 03:30:31;;;;;;;9.20;5.97;;;;;;;5.73;84.79;99504.47;6155534;23;20029;-88
2022/04/19 03:32:57;;;;;;;6.95;5.57;;;;;;;5.76;84.67;99505.63;6129625;23;20086;-88
2022/04/19 03:35:23;;;;;;;6.43;5.70;;;;;;;5.72;84.72;99499.38;6155643;23;20021;-88
2022/04/19 03:37:48;;;;;;;6.70;5.65;;;;;;;5.70;84.96;99496.28;6156753;23;20017;-89
2022/04/19 03:40:15;;;;;;;6.97;5.90;;;;;;;5.69;85.42;99500.22;6152402;23;20017;-88
2022/04/19 03:42:41;;;;;;;7.60;6.10;;;;;;;5.68;85.21;99493.16;6155317;23;20399;-88
2022/04/19 03:45:10;;;;;;;7.35;5.68;;;;;;;5.66;84.71;99499.09;6181454;23;20005;-89
2022/04/19 03:47:36;;;;;;;7.43;5.93;;;;;;;5.63;85.20;99497.94;6157407;23;20104;-88
2022/04/19 03:50:03;;;;;;;7.78;5.85;;;;;;;5.69;85.53;99500.22;6154144;23;20021;-88
2022/04/19 03:52:31;;;;;;;7.90;6.13;;;;;;;5.63;85.09;99503.44;6155033;23;20577;-82
2022/04/19 03:54:57;;;;;;;8.43;5.97;;;;;;;5.59;85.44;99497.22;6182622;23;20023;-81
2022/04/19 03:57:26;;;;;;;7.35;6.05;;;;;;;5.66;85.15;99507.34;6181060;23;20009;-81
2022/04/19 03:59:53;;;;;;;9.57;6.32;;;;;;;5.66;85.22;99517.56;6132380;23;20020;-81
2022/04/19 04:02:25;;;;;;;6.75;6.05;;;;;;;5.62;85.16;99490.88;6154767;23;20458;-81
2022/04/19 04:04:50;;;;;;;7.65;6.22;;;;;;;5.63;85.97;99508.16;6154242;23;20073;-81
2022/04/19 04:07:16;;;;;;;7.18;6.28;;;;;;;5.59;85.04;99497.22;6156894;23;20017;-82
2022/04/19 04:09:42;;;;;;;7.47;6.68;;;;;;;5.60;85.47;99507.03;6156047;23;20451;-81
2022/04/19 04:12:10;;;;;;;7.82;6.80;;;;;;;5.60;84.67;99501.53;6182132;23;20008;-81
2022/04/19 04:14:39;;;;;;;8.30;6.30;;;;;;;5.71;84.69;99526.13;6130559;23;20009;-81
2022/04/19 04:17:05;;;;;;;7.97;6.32;;;;;;;5.71;84.31;99508.84;6155928;23;20443;-82
2022/04/19 04:19:31;;;;;;;9.32;6.90;;;;;;;5.75;83.99;99515.06;6131207;23;20059;-81
2022/04/19 04:21:57;;;;;;;7.90;6.55;;;;;;;5.83;82.21;99522.78;6181869;23;20017;-81
2022/04/19 04:24:25;;;;;;;7.50;6.55;;;;;;;5.79;82.62;99505.56;6154632;23;20514;-81
2022/04/19 04:26:50;;;;;;;7.65;6.55;;;;;;;5.85;82.69;99522.38;6157069;23;20021;-81
2022/04/19 04:29:19;;;;;;;9.52;7.15;;;;;;;5.84;82.38;99518.06;6129614;23;20108;-81
2022/04/19 04:31:47;;;;;;;8.38;7.10;;;;;;;5.89;81.93;99523.13;6156003;23;20019;-81
2022/04/19 04:34:16;;;;;;;8.68;7.18;;;;;;;5.93;82.27;99507.34;6156801;23;20013;-81
2022/04/19 04:36:43;;;;;;;10.07;7.20;;;;;;;5.97;81.84;99524.56;6131558;23;20096;-81
2022/04/19 04:39:14;;;;;;;8.38;6.65;;;;;;;5.91;81.92;99509.72;6156195;23;20017;-81
2022/04/19 04:42:06;;;;;;;9.30;7.20;;;;;;;5.98;81.57;99507.66;6181740;23;20021;-81
2022/04/19 04:44:31;;;;;;;11.15;7.28;;;;;;;6.06;80.77;99524.81;6181877;23;20271;-81
2022/04/19 04:49:41;;;;;;;9.00;6.82;;;;;;;6.07;79.52;99515.34;6178578;23;20020;-90
2022/04/19 04:52:14;;;;;;;8.82;7.32;;;;;;;6.09;80.13;99522.00;6153314;23;20111;-88
2022/04/19 04:54:41;;;;;;;8.38;7.32;;;;;;;6.14;80.23;99519.97;6153886;23;20565;-89
2022/04/19 04:57:08;;;;;;;8.70;7.07;;;;;;;6.17;79.72;99519.91;6153001;23;20016;-89
2022/04/19 04:59:34;;;;;;;8.75;7.20;;;;;;;6.18;79.23;99515.97;6150420;23;20012;-89
2022/04/19 05:02:01;;;;;;;8.65;6.85;;;;;;;6.21;79.06;99517.88;6173709;23;20079;-89
2022/04/19 05:04:26;;;;;;;8.68;7.05;;;;;;;6.27;79.28;99523.69;6150406;23;20099;-89
2022/04/19 05:06:53;;;;;;;9.07;7.68;;;;;;;6.24;80.61;99524.50;6150102;23;20456;-89
2022/04/19 05:09:20;;;;;;;9.13;7.82;;;;;;;6.33;79.76;99522.78;6149763;23;20367;-81
2022/04/19 05:11:54;;;;;;;9.35;7.43;;;;;;;6.38;79.39;99516.78;6148675;23;20017;-81
2022/04/19 05:14:26;;;;;;;11.43;8.18;;;;;;;6.50;79.04;99524.44;6129153;23;20024;-81
2022/04/19 05:16:51;;;;;;;9.25;7.53;;;;;;;6.55;78.84;99521.16;6150750;23;20427;-82
2022/04/19 05:19:17;;;;;;;9.85;8.45;;;;;;;6.60;77.37;99519.13;6176467;23;20021;-81
2022/04/19 05:21:43;;;;;;;11.50;8.77;;;;;;;6.64;77.48;99511.56;6151382;23;20031;-81
2022/04/19 05:24:09;;;;;;;11.02;8.52;;;;;;;6.70;77.08;99523.69;6125105;23;20092;-81
2022/04/19 05:26:35;;;;;;;10.45;8.70;;;;;;;6.70;76.96;99513.44;6151759;23;20032;-81
2022/04/19 05:29:02;;;;;;;8.85;7.93;;;;;;;6.76;76.76;99517.22;6127616;23;20056;-82
2022/04/19 05:31:28;;;;;;;9.82;8.18;;;;;;;6.72;76.51;99521.25;6103985;23;20048;-81
2022/04/19 05:33:54;;;;;;;9.50;8.35;;;;;;;6.79;76.56;99515.63;6127338;23;20021;-82
2022/04/19 05:36:19;;;;;;;9.63;8.07;;;;;;;6.79;76.25;99519.16;6173465;23;20013;-81
2022/04/19 05:38:45;;;;;;;10.23;8.77;;;;;;;6.80;76.17;99512.44;6149642;23;20013;-82
2022/04/19 05:41:11;;;;;;;9.13;8.20;;;;;;;6.89;75.45;99514.63;6151424;23;20005;-83
2022/04/19 05:43:38;;;;;;;10.13;8.35;;;;;;;6.94;75.38;99516.91;6152793;23;20013;-81
2022/04/19 05:46:04;;;;;;;10.85;8.68;;;;;;;6.96;75.35;99520.00;6128302;23;20024;-82
2022/04/19 05:48:30;;;;;;;10.52;8.55;;;;;;;6.96;75.50;99522.75;6155507;23;20297;-81
2022/04/19 05:50:55;;;;;;;10.18;9.07;;;;;;;6.95;74.90;99522.00;6155744;23;20051;-80
2022/04/19 05:53:22;;;;;;;11.18;9.00;;;;;;;7.00;74.24;99512.41;6131278;23;20355;-81
2022/04/19 05:55:47;;;;;;;10.07;8.50;;;;;;;7.00;73.88;99520.69;6131526;23;20016;-81
2022/04/19 05:58:14;;;;;;;9.57;8.40;;;;;;;7.01;72.73;99509.25;6182315;23;20016;-81
2022/04/19 06:00:40;;;;;;;11.48;8.82;;;;;;;7.10;72.25;99513.41;6155386;23;20021;-80
2022/04/19 06:05:50;;;;;;;11.48;9.38;;;;;;;7.13;71.11;99532.63;6152412;23;20016;-80
2022/04/19 06:08:16;;;;;;;12.30;9.98;;;;;;;7.15;71.17;99527.50;6154318;23;20020;-87
2022/04/19 06:10:45;;;;;;;13.20;10.23;;;;;;;7.15;71.25;99515.69;6129497;23;20415;-87
2022/04/19 06:13:11;;;;;;;12.73;9.57;;;;;;;7.13;71.37;99524.38;6153329;23;20048;-88
2022/04/19 06:15:37;;;;;;;10.90;9.15;;;;;;;7.17;71.02;99524.28;6151882;23;20013;-87
2022/04/19 06:18:05;;;;;;;10.20;9.15;;;;;;;7.15;70.91;99524.72;6177691;23;20187;-87
2022/04/19 06:20:53;;;;;;;10.18;8.73;;;;;;;7.21;70.74;99534.03;6153452;23;20472;-87
2022/04/19 06:23:19;;;;;;;10.23;9.20;;;;;;;7.24;71.09;99527.66;6128903;23;20020;-88
2022/04/19 06:25:45;;;;;;;11.13;9.55;;;;;;;7.30;71.23;99534.25;6155460;23;20025;-87
2022/04/19 06:28:11;;;;;;;11.35;9.70;;;;;;;7.23;70.06;99523.38;6155046;23;20332;-87
2022/04/19 06:31:03;;;;;;;11.07;8.93;;;;;;;7.31;69.63;99519.25;6128418;23;20020;-90
2022/04/19 06:33:31;;;;;;;10.68;9.00;;;;;;;7.49;69.00;99535.41;6154274;23;20017;-90
2022/04/19 06:35:57;;;;;;;9.57;8.63;;;;;;;7.61;67.67;99539.47;6155658;23;20017;-88
2022/04/19 06:38:23;;;;;;;9.77;8.13;;;;;;;7.60;65.24;99532.44;6156410;23;20320;-89
2022/04/19 06:40:49;;;;;;;9.20;8.23;;;;;;;7.58;65.93;99521.81;6157916;23;20017;-89
2022/04/19 06:43:14;;;;;;;9.15;8.25;;;;;;;7.74;65.70;99532.09;6157549;23;20091;-88
2022/04/19 06:45:55;;;;;;;8.80;7.90;;;;;;;7.86;63.60;99532.19;6114959;23;20033;-88
2022/04/19 06:48:25;;;;;;;11.55;8.90;;;;;;;7.96;61.76;99524.88;6157791;23;20060;-89
2022/04/19 06:50:52;;;;;;;9.20;8.15;;;;;;;7.89;61.32;99514.75;6154879;23;20051;-87
2022/04/19 06:53:18;;;;;;;9.60;7.45;;;;;;;8.09;62.04;99506.38;6154872;23;20116;-88
2022/04/19 06:55:58;;;;;;;16.27;8.52;;;;;;;8.27;60.52;99515.00;6133308;23;20104;-88
2022/04/19 06:58:24;;;;;;;9.05;7.97;;;;;;;8.28;59.57;99513.78;6155075;23;20111;-89
2022/04/19 07:00:50;;;;;;;9.63;8.07;;;;;;;8.22;59.96;99518.28;6155030;23;20033;-89
2022/04/19 07:03:16;;;;;;;9.35;7.63;;;;;;;8.22;58.51;99526.56;6111954;23;20084;-88
2022/04/19 07:06:00;;;;;;;10.77;7.63;;;;;;;8.20;59.44;99517.94;6128373;23;20033;-89
2022/04/19 07:08:27;;;;;;;10.27;7.90;;;;;;;8.22;60.63;99510.00;6125143;23;20355;-88
2022/04/19 07:10:52;;;;;;;13.77;8.45;;;;;;;8.36;59.98;99519.94;6124920;23;20009;-89
2022/04/19 07:13:39;;;;;;;16.23;8.82;;;;;;;8.40;59.34;99504.81;6091367;23;20139;-89
2022/04/19 07:16:09;;;;;;;8.70;7.15;;;;;;;8.41;58.96;99516.66;6124879;23;20440;-90
2022/04/19 07:18:35;;;;;;;8.25;7.35;;;;;;;8.52;58.42;99499.78;6099899;23;20017;-89
2022/04/19 07:26:40;;;;;;;8.02;6.57;;;;;;;8.72;57.44;99509.50;6125271;23;20021;-80
2022/04/19 07:29:12;;;;;;;7.93;6.53;;;;;;;8.86;55.41;99502.75;6124851;23;20033;-79
2022/04/19 07:31:47;;;;;;;8.70;6.85;;;;;;;8.91;55.61;99505.00;6125466;23;20076;-79
2022/04/19 07:34:33;;;;;;;8.05;6.85;;;;;;;9.03;56.97;99497.94;6084154;23;20012;-80
2022/04/19 07:36:59;;;;;;;9.27;7.53;;;;;;;9.14;56.33;99493.66;6125773;23;20021;-80
2022/04/19 07:39:24;;;;;;;9.82;7.57;;;;;;;9.25;56.88;99498.88;6100130;23;20446;-80
2022/04/19 07:41:51;;;;;;;12.35;8.50;;;;;;;9.36;55.20;99500.09;6126745;23;20368;-80
2022/04/19 07:44:16;;;;;;;11.23;7.32;;;;;;;9.25;54.61;99507.97;6128153;23;20012;-79
2022/04/19 07:46:43;;;;;;;7.00;6.30;;;;;;;9.35;53.87;99506.84;6126893;23;20466;-79
2022/04/19 07:49:09;;;;;;;12.43;7.85;;;;;;;9.55;55.80;99489.25;6125035;23;20085;-80
2022/04/19 07:51:35;;;;;;;8.77;7.22;;;;;;;9.65;56.25;99493.69;6125909;23;20014;-80
2022/04/19 07:54:01;;;;;;;13.02;7.28;;;;;;;9.77;55.41;99498.44;6124816;23;20052;-80
2022/04/19 07:56:27;;;;;;;13.25;7.70;;;;;;;9.66;55.76;99503.56;6124870;23;20036;-80
2022/04/19 07:58:53;;;;;;;9.13;7.00;;;;;;;9.75;56.78;99506.41;6125859;23;20014;-90
2022/04/19 08:01:19;;;;;;;8.57;7.15;;;;;;;9.87;56.24;99499.34;6153971;23;20067;-89
2022/04/19 08:03:46;;;;;;;8.40;7.20;;;;;;;9.76;55.16;99502.44;6151082;23;20013;-88
2022/04/19 08:06:12;;;;;;;8.43;7.35;;;;;;;9.63;54.94;99493.34;6157098;23;20024;-89
2022/04/19 08:08:40;;;;;;;8.38;6.93;;;;;;;9.51;55.12;99494.13;6131072;23;20032;-89
2022/04/19 08:11:06;;;;;;;7.30;6.55;;;;;;;9.62;56.14;99497.34;6155451;23;20017;-88
2022/04/19 08:13:33;;;;;;;7.13;6.43;;;;;;;9.65;55.63;99485.38;6156571;23;20017;-89
2022/04/19 08:15:58;;;;;;;9.77;7.45;;;;;;;9.69;55.28;99491.59;6156595;23;20025;-89
2022/04/19 08:18:24;;;;;;;9.73;6.78;;;;;;;9.98;55.13;99495.00;6183499;23;20013;-89
2022/04/19 08:20:53;;;;;;;8.68;6.93;;;;;;;10.20;52.91;99493.06;6156096;23;20021;-79
2022/04/19 08:23:20;;;;;;;9.02;6.72;;;;;;;10.31;53.19;99489.19;6131961;23;20461;-79
2022/04/19 08:25:54;;;;;;;7.78;6.60;;;;;;;10.35;53.74;99476.75;6133359;23;20017;-79
2022/04/19 08:28:19;;;;;;;7.70;6.90;;;;;;;10.45;53.58;99481.13;6182645;23;20017;-80
2022/04/19 08:30:45;;;;;;;8.52;7.20;;;;;;;10.48;51.95;99477.47;6156032;23;20328;-79
2022/04/19 08:33:15;;;;;;;10.05;6.70;;;;;;;10.76;51.81;99484.00;6156139;23;20039;-79
2022/04/19 08:35:41;;;;;;;7.72;6.60;;;;;;;10.79;48.51;99485.88;6156127;23;20435;-79
2022/04/19 08:38:07;;;;;;;10.40;6.82;;;;;;;10.75;48.46;99488.00;6182073;23;20080;-79
2022/04/19 08:40:33;;;;;;;8.40;6.68;;;;;;;10.74;48.03;99478.91;6157064;23;20013;-80
2022/04/19 08:43:03;;;;;;;7.45;6.35;;;;;;;10.79;48.32;99485.09;6131684;23;20024;-79
2022/04/19 08:45:28;;;;;;;10.45;6.93;;;;;;;10.62;49.82;99474.19;6182026;23;20080;-80
2022/04/19 08:47:59;;;;;;;8.65;6.93;;;;;;;10.68;49.78;99482.69;6182938;23;20017;-80
2022/04/19 08:50:25;;;;;;;7.47;6.05;;;;;;;10.67;49.78;99465.31;6156730;23;20013;-79
2022/04/19 08:57:29;;;;;;;9.30;6.35;;;;;;;10.64;47.93;99476.50;6156132;23;20005;-79
2022/04/19 08:58:20;;;;;;;8.23;7.32;;;;;;;10.65;50.59;99467.75;6181380;23;20016;-87
2022/04/19 09:00:45;;;;;;;9.55;7.45;;;;;;;10.58;51.57;99481.88;6179685;23;20339;-89
2022/04/19 09:03:11;;;;;;;8.05;7.25;;;;;;;10.32;51.47;99474.84;6180920;23;20076;-90
2022/04/19 09:05:49;;;;;;;9.52;7.25;;;;;;;10.20;52.64;99482.00;6155248;23;20064;-89
2022/04/19 09:08:15;;;;;;;9.35;7.85;;;;;;;10.01;51.76;99468.38;6127770;23;20087;-90
2022/04/19 09:10:40;;;;;;;8.55;7.65;;;;;;;10.05;52.29;99471.81;6179268;23;20013;-88
2022/04/19 09:13:08;;;;;;;8.65;7.60;;;;;;;9.97;52.69;99479.59;6154302;23;20036;-90
2022/04/19 09:15:35;;;;;;;9.48;7.18;;;;;;;9.90;53.27;99471.50;6129836;23;20017;-88
2022/04/19 09:18:02;;;;;;;13.52;7.22;;;;;;;9.63;54.05;99471.19;6154759;23;20005;-85
2022/04/19 09:20:28;;;;;;;11.18;7.88;;;;;;;9.70;53.90;99477.31;6127904;23;20020;-88
2022/04/19 09:23:05;;;;;;;11.70;7.65;;;;;;;9.68;54.12;99467.88;6153571;23;20031;-88
2022/04/19 09:25:32;;;;;;;8.63;7.68;;;;;;;9.51;55.40;99469.19;6180785;23;20009;-88
2022/04/19 09:27:58;;;;;;;9.10;7.88;;;;;;;9.44;56.22;99470.22;6180042;23;20072;-88
2022/04/19 09:30:28;;;;;;;9.05;7.65;;;;;;;9.23;55.83;99476.38;6179395;23;20013;-88
2022/04/19 09:33:05;;;;;;;8.68;7.78;;;;;;;9.08;56.79;99469.75;6154775;23;20447;-88
2022/04/19 09:35:36;;;;;;;8.40;7.60;;;;;;;9.06;56.88;99480.50;6154642;23;20100;-81
2022/04/19 09:38:03;;;;;;;8.75;7.85;;;;;;;9.01;57.72;99476.28;6181876;23;20013;-80
2022/04/19 09:40:30;;;;;;;9.07;8.05;;;;;;;8.95;58.55;99466.94;6181621;23;20123;-81
2022/04/19 09:42:55;;;;;;;9.35;8.30;;;;;;;9.01;59.82;99469.97;6181866;23;20013;-81
2022/04/19 09:45:27;;;;;;;7.68;6.88;;;;;;;8.89;58.81;99466.72;6153712;23;20019;-80
2022/04/19 09:47:53;;;;;;;9.50;8.15;;;;;;;8.77;63.58;99466.69;6182071;23;20087;-80
2022/04/19 09:50:18;;;;;;;9.02;8.02;;;;;;;8.73;64.92;99463.25;6155057;23;20016;-81
2022/04/19 09:52:48;;;;;;;8.60;7.80;;;;;;;8.80;65.12;99474.09;6181953;23;20055;-81
2022/04/19 09:55:15;;;;;;;8.43;7.55;;;;;;;8.87;64.15;99476.66;6181141;23;20104;-87
2022/04/19 09:57:41;;;;;;;8.88;7.97;;;;;;;8.80;62.68;99471.34;6180454;23;20357;-87
2022/04/19 10:00:09;;;;;;;9.55;8.10;;;;;;;8.69;62.88;99470.88;6180936;23;20020;-87
2022/04/19 10:08:10;;;;;;;11.77;9.13;;;;;;;8.51;67.40;99479.66;6180668;23;20020;-88
2022/04/19 10:10:42;;;;;;;9.80;8.77;;;;;;;8.24;67.47;99451.53;6154522;23;20416;-87
2022/04/19 10:13:08;;;;;;;11.90;8.73;;;;;;;8.32;67.78;99475.03;6181969;23;20017;-88
2022/04/19 10:15:35;;;;;;;11.88;9.20;;;;;;;8.46;69.67;99482.94;6184625;23;20491;-88
2022/04/19 10:18:04;;;;;;;9.20;8.30;;;;;;;8.51;68.25;99476.09;6157737;23;20017;-87
2022/04/19 10:20:33;;;;;;;11.90;8.27;;;;;;;8.51;66.12;99459.53;6183530;23;20013;-88
2022/04/19 10:23:03;;;;;;;13.10;8.98;;;;;;;8.63;67.07;99456.81;6158764;23;20017;-88
2022/04/19 10:25:44;;;;;;;15.80;10.20;;;;;;;8.58;65.36;99470.38;6184403;23;20486;-88
2022/04/19 10:28:31;;;;;;;11.88;9.75;;;;;;;8.77;66.05;99467.47;6182545;23;20051;-88
2022/04/19 10:30:58;;;;;;;12.75;10.10;;;;;;;9.00;68.00;99465.63;6181710;23;20044;-90
2022/04/19 10:33:39;;;;;;;10.57;7.80;;;;;;;8.90;64.63;99464.72;6133479;23;20045;-81
2022/04/19 10:36:15;;;;;;;15.02;8.80;;;;;;;8.95;69.56;99466.16;6183797;23;20009;-81
2022/04/19 10:38:41;;;;;;;9.40;8.50;;;;;;;9.04;69.83;99463.53;6157898;23;20043;-81
2022/04/19 10:41:07;;;;;;;9.57;8.30;;;;;;;8.99;68.78;99450.25;6184282;23;20005;-81
2022/04/19 10:43:33;;;;;;;9.35;8.05;;;;;;;9.04;67.45;99458.78;6134794;23;20064;-81
2022/04/19 10:46:16;;;;;;;10.98;8.68;;;;;;;9.28;65.65;99462.00;6185112;23;20044;-81
2022/04/19 10:49:20;;;;;;;;;;;;;;;9.50;63.14;99467.69;6185625;23;20533;-81
2022/04/19 10:51:46;;;;;;;8.68;7.18;;;;;;;9.71;61.48;99456.69;6093175;23;19920;-81
2022/04/19 10:54:13;;;;;;;8.18;7.35;;;;;;;10.16;61.11;99445.31;6093433;23;20019;-81
2022/04/19 11:00:00;;;;;;;8.85;7.85;;;;;;;10.28;56.94;99438.16;6162430;23;20415;-81
2022/04/19 11:02:36;;;;;;;8.45;7.65;;;;;;;10.17;58.41;99440.53;6184211;23;20439;-81
2022/04/19 11:05:03;;;;;;;8.55;7.70;;;;;;;10.36;58.98;99441.47;6183233;23;20350;-81
2022/04/19 11:07:46;;;;;;;9.23;7.30;;;;;;;10.67;56.66;99436.78;6158931;23;20071;-81
2022/04/19 11:10:11;;;;;;;8.40;7.60;;;;;;;10.93;57.90;99440.94;6182638;23;20017;-81
2022/04/19 11:13:12;;;;;;;8.35;7.50;;;;;;;10.99;56.12;99441.91;6184829;23;20380;-83
2022/04/19 11:15:38;;;;;;;9.55;8.55;;;;;;;11.08;56.64;99433.63;6035274;23;20046;-81
2022/04/19 11:18:23;;;;;;;8.13;7.25;;;;;;;11.41;55.21;99433.16;6154479;23;20013;-81
2022/04/19 11:20:53;;;;;;;7.72;6.95;;;;;;;11.54;53.13;99404.06;6183082;23;20631;-81
2022/04/19 11:23:21;;;;;;;8.32;7.10;;;;;;;11.64;51.22;99424.31;6183074;23;20013;-81
2022/04/19 11:25:47;;;;;;;7.78;7.00;;;;;;;11.68;51.91;99417.38;6182546;23;20020;-81
2022/04/19 11:28:37;;;;;;;7.22;6.53;;;;;;;11.83;51.80;99408.47;6182501;23;20009;-81
2022/04/19 11:31:07;;;;;;;8.35;6.75;;;;;;;11.71;51.09;99412.88;6182029;23;20024;-81
2022/04/19 11:33:34;;;;;;;7.40;6.55;;;;;;;11.71;52.26;99407.34;6183456;23;20444;-81
2022/04/19 11:36:01;;;;;;;7.72;6.65;;;;;;;11.61;53.93;99416.88;6182004;23;20012;-81
2022/04/19 11:38:28;;;;;;;8.07;6.45;;;;;;;11.78;50.56;99420.94;6130098;23;20089;-81
2022/04/19 11:49:08;;;;;;;8.23;6.60;;;;;;;12.21;50.51;99405.25;6182525;23;20075;-81
2022/04/19 11:51:37;;;;;;;7.32;6.63;;;;;;;12.37;49.43;99397.38;6181970;23;20005;-82
2022/04/19 11:54:03;;;;;;;7.15;6.45;;;;;;;12.47;49.75;99390.56;6182923;23;20053;-82
2022/04/19 11:56:30;;;;;;;7.55;6.85;;;;;;;12.39;48.61;99381.00;6156406;23;20020;-81
2022/04/19 11:59:00;;;;;;;7.95;6.65;;;;;;;12.62;49.39;99390.69;6156445;23;20481;-82
2022/04/19 12:01:27;;;;;;;7.22;6.45;;;;;;;12.74;49.27;99373.03;6156596;23;20455;-81
2022/04/19 12:03:53;;;;;;;7.95;6.97;;;;;;;12.80;48.65;99387.09;6157024;23;20064;-81
2022/04/19 12:06:20;;;;;;;8.13;6.70;;;;;;;12.74;48.76;99381.38;6156077;23;20009;-82
2022/04/19 12:08:51;;;;;;;7.20;6.30;;;;;;;12.60;48.84;99373.69;6157431;23;20511;-82
2022/04/19 12:11:25;;;;;;;7.38;5.93;;;;;;;12.64;48.31;99382.66;6156528;23;20046;-82
2022/04/19 12:13:51;;;;;;;7.78;6.00;;;;;;;12.74;48.58;99373.03;6180663;23;20036;-81
2022/04/19 12:16:39;;;;;;;6.53;5.55;;;;;;;12.39;47.76;99378.22;6179013;23;20047;-82
2022/04/19 12:19:10;;;;;;;6.85;6.22;;;;;;;12.46;48.09;99371.56;6155353;23;20343;-82
2022/04/19 12:21:43;;;;;;;6.95;6.25;;;;;;;12.32;48.63;99366.63;6155101;23;20092;-82
2022/04/19 12:24:23;;;;;;;7.53;6.70;;;;;;;12.33;47.95;99374.53;6155773;23;20241;-81